Time;durP1;ratioP1;P1;durP2;ratioP2;P2;SDS_P1;SDS_P2;PMS_P1;PMS_P2;Temp;Humidity;BMP_temperature;BMP_pressure;BME280_temperature;BME280_humidity;BME280_pressure;Samples;Min_cycle;Max_cycle;Signal;HPM_P1;HPM_P2
2023/04/07 00:01:35;;;;;;;0.10;0.10;;;;;;;3.31;48.11;100609.72;5112039;27;20487;-69
2023/04/07 00:04:01;;;;;;;0.10;0.10;;;;;;;3.33;48.28;100614.94;5108771;27;20048;-69
2023/04/07 00:06:28;;;;;;;0.10;0.10;;;;;;;3.34;48.19;100609.31;5078377;28;20152;-69
2023/04/07 00:08:55;;;;;;;0.10;0.10;;;;;;;3.34;48.10;100614.72;5109827;27;20077;-69
2023/04/07 00:11:21;;;;;;;0.00;0.00;;;;;;;3.34;48.29;100611.19;5097541;28;20043;-69
2023/04/07 00:13:47;;;;;;;0.10;0.10;;;;;;;3.28;48.39;100610.16;5094072;28;20040;-69
2023/04/07 00:16:14;;;;;;;0.10;0.10;;;;;;;3.23;48.44;100605.34;5105654;27;20065;-69
2023/04/07 00:18:40;;;;;;;0.10;0.10;;;;;;;3.19;48.47;100609.50;5102666;27;20042;-68
2023/04/07 00:21:06;;;;;;;0.10;0.10;;;;;;;3.15;48.75;100599.31;5097312;27;20060;-69
2023/04/07 00:23:32;;;;;;;0.15;0.10;;;;;;;3.11;48.66;100599.72;5108903;27;20044;-69
2023/04/07 00:25:59;;;;;;;0.10;0.10;;;;;;;3.09;48.76;100604.50;5093364;28;20055;-70
2023/04/07 00:28:26;;;;;;;0.10;0.10;;;;;;;3.06;49.02;100594.13;5111187;27;20096;-69
2023/04/07 00:30:52;;;;;;;0.10;0.10;;;;;;;3.06;48.92;100601.38;5103191;27;20055;-69
2023/04/07 00:33:18;;;;;;;0.10;0.10;;;;;;;3.01;49.05;100606.59;5062071;28;20134;-69
2023/04/07 00:35:44;;;;;;;0.00;0.00;;;;;;;2.97;49.09;100606.16;5104464;28;20142;-70
2023/04/07 00:38:11;;;;;;;0.10;0.10;;;;;;;2.94;49.21;100612.78;5098336;28;20418;-69
2023/04/07 00:40:38;;;;;;;0.10;0.10;;;;;;;2.93;49.29;100613.81;5094274;28;20084;-70
2023/04/07 00:43:05;;;;;;;0.52;0.10;;;;;;;2.93;49.20;100616.53;5106397;28;20067;-70
2023/04/07 00:45:32;;;;;;;0.10;0.10;;;;;;;2.84;49.57;100607.78;5097932;28;20070;-68
2023/04/07 00:47:58;;;;;;;0.00;0.00;;;;;;;2.81;49.64;100612.75;5104367;27;20044;-69
2023/04/07 00:50:25;;;;;;;0.10;0.10;;;;;;;2.75;49.79;100619.81;5080348;28;20518;-70
2023/04/07 00:52:53;;;;;;;0.10;0.10;;;;;;;2.64;50.13;100610.41;5102497;27;20157;-69
2023/04/07 00:55:20;;;;;;;0.10;0.10;;;;;;;2.70;50.04;100611.47;5095987;28;20054;-69
2023/04/07 00:57:46;;;;;;;0.10;0.10;;;;;;;2.72;49.78;100609.41;5105766;27;20194;-69
2023/04/07 01:00:14;;;;;;;0.08;0.08;;;;;;;2.56;50.02;100594.41;5077467;28;20126;-69
2023/04/07 01:02:44;;;;;;;0.00;0.00;;;;;;;2.63;50.17;100608.75;5095843;28;20062;-69
2023/04/07 01:05:15;;;;;;;0.10;0.10;;;;;;;2.42;50.29;100577.34;5098602;28;20079;-69
2023/04/07 01:07:51;;;;;;;0.10;0.10;;;;;;;2.55;50.32;100606.25;5077784;28;20047;-69
2023/04/07 01:10:26;;;;;;;0.10;0.10;;;;;;;2.49;50.27;100604.31;5106842;27;20166;-69
2023/04/07 01:13:07;;;;;;;0.10;0.10;;;;;;;2.50;50.60;100611.41;5094455;28;20044;-69
2023/04/07 01:15:37;;;;;;;0.10;0.10;;;;;;;2.52;50.62;100615.56;5106195;27;20505;-69
2023/04/07 01:18:12;;;;;;;0.10;0.10;;;;;;;2.56;50.66;100616.00;5088924;28;20100;-69
2023/04/07 01:20:39;;;;;;;0.10;0.10;;;;;;;2.52;50.58;100606.66;5095522;27;20048;-69
2023/04/07 01:23:07;;;;;;;0.10;0.10;;;;;;;2.47;50.65;100612.66;5102892;28;20047;-69
2023/04/07 01:25:50;;;;;;;0.10;0.10;;;;;;;2.41;50.79;100608.88;5096643;28;20044;-69
2023/04/07 01:28:40;;;;;;;0.38;0.10;;;;;;;2.34;50.86;100616.13;5100831;27;20050;-69
2023/04/07 01:31:09;;;;;;;0.25;0.10;;;;;;;2.28;51.10;100614.22;5087214;28;20039;-69
2023/04/07 01:33:37;;;;;;;0.10;0.10;;;;;;;2.19;51.38;100621.63;5099132;28;20043;-69
2023/04/07 01:36:05;;;;;;;0.10;0.10;;;;;;;2.10;51.67;100610.16;5092024;28;20054;-69
2023/04/07 01:38:33;;;;;;;0.05;0.05;;;;;;;2.19;51.52;100623.53;5094301;28;20040;-69
2023/04/07 01:40:59;;;;;;;;;;;;;;;2.16;51.47;100613.94;5099659;28;20059;-69
2023/04/07 01:43:27;;;;;;;0.15;0.10;;;;;;;2.15;51.75;100609.59;5108168;28;20301;-69
2023/04/07 01:45:55;;;;;;;0.10;0.10;;;;;;;2.19;51.53;100612.72;5102876;28;20468;-69
2023/04/07 01:48:24;;;;;;;0.10;0.10;;;;;;;2.12;51.63;100610.81;5096135;28;20043;-69
2023/04/07 01:50:51;;;;;;;0.10;0.10;;;;;;;2.09;51.73;100613.06;5105576;28;20130;-69
2023/04/07 01:53:18;;;;;;;0.10;0.10;;;;;;;2.00;51.91;100612.38;5094091;28;20044;-69
2023/04/07 01:55:44;;;;;;;0.10;0.10;;;;;;;1.99;52.01;100613.41;5105178;28;20146;-69
2023/04/07 01:58:10;;;;;;;0.10;0.10;;;;;;;1.93;52.10;100612.34;5092762;28;20312;-69
2023/04/07 02:00:40;;;;;;;0.10;0.10;;;;;;;1.93;52.32;100612.34;5079416;28;20058;-69
2023/04/07 02:03:19;;;;;;;0.10;0.10;;;;;;;2.00;51.90;100617.78;5095116;28;20050;-69
2023/04/07 02:05:51;;;;;;;0.10;0.10;;;;;;;1.89;52.41;100616.47;5074892;28;20043;-71
2023/04/07 02:08:20;;;;;;;0.10;0.10;;;;;;;1.79;52.76;100618.66;5099172;28;20166;-69
2023/04/07 02:10:48;;;;;;;0.10;0.10;;;;;;;1.83;52.50;100620.78;5081376;27;20433;-69
2023/04/07 02:13:19;;;;;;;0.10;0.10;;;;;;;1.80;52.64;100621.19;5095645;27;20451;-69
2023/04/07 02:15:49;;;;;;;0.15;0.15;;;;;;;1.74;52.91;100619.28;5099173;28;20047;-69
2023/04/07 02:18:20;;;;;;;0.10;0.10;;;;;;;1.66;52.88;100616.72;5101471;27;20506;-69
2023/04/07 02:20:49;;;;;;;0.10;0.10;;;;;;;1.62;53.21;100615.44;5100029;28;20060;-69
2023/04/07 02:23:16;;;;;;;0.10;0.10;;;;;;;1.69;53.18;100621.72;5099428;28;20044;-69
2023/04/07 02:25:42;;;;;;;0.00;0.00;;;;;;;1.63;53.14;100620.63;5100699;27;20082;-69
2023/04/07 02:28:08;;;;;;;0.10;0.10;;;;;;;1.54;53.20;100619.94;5101753;28;20047;-69
2023/04/07 02:30:35;;;;;;;0.10;0.10;;;;;;;1.55;53.51;100615.41;5106836;28;20054;-70
2023/04/07 02:33:01;;;;;;;0.10;0.10;;;;;;;1.54;53.48;100622.63;5112216;27;20052;-70
2023/04/07 02:35:27;;;;;;;0.22;0.17;;;;;;;1.62;53.48;100621.66;5075915;28;20526;-70
2023/04/07 02:37:55;;;;;;;0.10;0.10;;;;;;;1.58;53.32;100630.34;5098279;28;20055;-70
2023/04/07 02:40:21;;;;;;;0.10;0.10;;;;;;;1.55;53.28;100629.69;5102353;28;20052;-69
2023/04/07 02:42:47;;;;;;;0.45;0.13;;;;;;;1.64;53.47;100630.41;5087080;27;20035;-69
2023/04/07 02:45:14;;;;;;;0.43;0.10;;;;;;;1.66;53.40;100635.59;5080851;28;20155;-69
2023/04/07 02:47:40;;;;;;;0.10;0.10;;;;;;;1.57;53.53;100624.13;5105491;28;20051;-69
2023/04/07 02:50:07;;;;;;;0.10;0.10;;;;;;;1.61;53.72;100625.38;5107197;27;20499;-69
2023/04/07 02:52:35;;;;;;;0.10;0.10;;;;;;;1.66;53.46;100627.50;5080072;28;20462;-69
2023/04/07 02:55:06;;;;;;;0.10;0.10;;;;;;;1.62;53.60;100627.06;5085551;28;20040;-69
2023/04/07 02:57:33;;;;;;;0.10;0.10;;;;;;;1.51;53.86;100628.44;5100142;28;20131;-69
2023/04/07 03:00:03;;;;;;;0.40;0.20;;;;;;;1.54;53.72;100632.59;5064510;28;20052;-68
2023/04/07 03:02:45;;;;;;;0.10;0.10;;;;;;;1.62;53.60;100635.16;5101608;28;20136;-69
2023/04/07 03:05:12;;;;;;;0.10;0.10;;;;;;;1.67;53.44;100648.91;5096701;28;20842;-70
2023/04/07 03:07:38;;;;;;;0.10;0.10;;;;;;;1.61;53.52;100644.25;5093272;28;20127;-69
2023/04/07 03:10:10;;;;;;;0.10;0.10;;;;;;;1.54;54.02;100638.81;5101055;28;20068;-69
2023/04/07 03:12:36;;;;;;;0.10;0.10;;;;;;;1.62;53.57;100647.81;5104087;28;20046;-68
2023/04/07 03:15:02;;;;;;;0.10;0.10;;;;;;;1.64;53.52;100640.34;5096783;28;20097;-68
2023/04/07 03:17:29;;;;;;;0.10;0.10;;;;;;;1.67;53.70;100640.81;5098255;28;20145;-68
2023/04/07 03:19:55;;;;;;;0.10;0.10;;;;;;;1.68;53.40;100642.47;5095832;28;20044;-68
2023/04/07 03:22:22;;;;;;;0.10;0.10;;;;;;;1.77;53.22;100653.09;5087254;27;20043;-68
2023/04/07 03:24:51;;;;;;;0.10;0.10;;;;;;;1.68;53.06;100630.84;5083728;28;20501;-68
2023/04/07 03:27:20;;;;;;;0.10;0.10;;;;;;;1.76;53.27;100640.66;5094633;28;20039;-68
2023/04/07 03:29:47;;;;;;;0.20;0.20;;;;;;;1.76;53.26;100649.59;5103653;27;20050;-69
2023/04/07 03:32:15;;;;;;;0.10;0.10;;;;;;;1.71;53.24;100652.00;5082257;28;20067;-68
2023/04/07 03:34:41;;;;;;;0.10;0.10;;;;;;;1.72;53.31;100651.00;5061671;28;20589;-68
2023/04/07 03:37:07;;;;;;;0.20;0.17;;;;;;;1.75;53.34;100658.72;5099494;28;20059;-69
2023/04/07 03:39:38;;;;;;;0.10;0.10;;;;;;;1.82;53.12;100656.88;5081345;28;20047;-69
2023/04/07 03:42:15;;;;;;;0.10;0.10;;;;;;;1.84;53.18;100659.41;5077421;28;20048;-69
2023/04/07 03:44:42;;;;;;;0.15;0.15;;;;;;;1.86;53.03;100660.03;5099651;28;20054;-70
2023/04/07 03:47:09;;;;;;;0.10;0.10;;;;;;;1.91;52.92;100659.44;5095140;28;20100;-70
2023/04/07 03:49:37;;;;;;;;;;;;;;;2.06;52.76;100664.72;5092650;28;20230;-69
2023/04/07 03:52:04;;;;;;;0.10;0.10;;;;;;;2.11;52.41;100673.09;5074388;28;20688;-70
2023/04/07 03:54:34;;;;;;;0.10;0.10;;;;;;;2.13;52.41;100671.84;5076712;27;20039;-69
2023/04/07 03:57:01;;;;;;;0.30;0.20;;;;;;;2.15;52.35;100668.94;5074683;27;20051;-69
2023/04/07 03:59:29;;;;;;;0.10;0.10;;;;;;;2.19;52.41;100669.41;5087765;28;20046;-70
2023/04/07 04:02:01;;;;;;;0.10;0.10;;;;;;;2.18;52.24;100673.09;5108420;27;20059;-69
2023/04/07 04:04:27;;;;;;;;;;;;;;;2.18;52.24;100673.94;5091071;28;20464;-69
2023/04/07 04:06:54;;;;;;;0.10;0.10;;;;;;;2.18;52.12;100668.53;5092957;28;20332;-69
2023/04/07 04:09:41;;;;;;;0.10;0.10;;;;;;;2.23;52.08;100673.34;5092151;28;20051;-69
2023/04/07 04:12:07;;;;;;;0.13;0.10;;;;;;;2.35;51.77;100668.22;5077722;27;20519;-70
2023/04/07 04:14:39;;;;;;;0.20;0.20;;;;;;;2.46;51.55;100673.06;5093189;28;20032;-69
2023/04/07 04:17:11;;;;;;;0.10;0.10;;;;;;;2.61;51.20;100680.22;5075743;28;20480;-69
2023/04/07 04:19:42;;;;;;;0.20;0.20;;;;;;;2.65;50.88;100678.75;5089950;28;20088;-70
2023/04/07 04:22:19;;;;;;;0.10;0.10;;;;;;;2.67;50.99;100672.13;5080095;28;20214;-69
2023/04/07 04:24:52;;;;;;;0.20;0.13;;;;;;;2.71;50.79;100677.94;5111646;27;20078;-69
2023/04/07 04:27:18;;;;;;;0.20;0.20;;;;;;;2.74;50.75;100680.28;5107032;27;20585;-68
2023/04/07 04:29:50;;;;;;;0.10;0.10;;;;;;;2.75;50.93;100689.19;5087120;28;20042;-68
2023/04/07 04:32:22;;;;;;;0.10;0.10;;;;;;;2.84;50.77;100682.59;5088736;28;20105;-68
2023/04/07 04:34:48;;;;;;;;;;;;;;;2.88;50.56;100691.09;5087707;28;20039;-68
2023/04/07 04:37:15;;;;;;;0.28;0.20;;;;;;;2.90;50.26;100686.38;5087845;28;19971;-68
2023/04/07 04:39:44;;;;;;;0.10;0.10;;;;;;;2.92;50.40;100685.09;5116863;27;20043;-68
2023/04/07 04:42:12;;;;;;;0.20;0.20;;;;;;;3.04;50.17;100682.63;5076104;28;20399;-68
2023/04/07 04:44:39;;;;;;;0.10;0.10;;;;;;;3.07;49.90;100692.22;5097370;28;20051;-68
2023/04/07 04:47:06;;;;;;;0.10;0.10;;;;;;;3.09;49.94;100682.88;5063371;28;20096;-68
2023/04/07 04:49:34;;;;;;;0.20;0.20;;;;;;;3.15;49.75;100693.91;5102521;28;20044;-68
2023/04/07 04:52:03;;;;;;;0.10;0.10;;;;;;;3.18;49.67;100693.50;5100623;27;20493;-69
2023/04/07 04:54:35;;;;;;;0.20;0.20;;;;;;;3.23;49.63;100694.56;5073700;28;20039;-68
2023/04/07 04:57:02;;;;;;;0.10;0.10;;;;;;;3.21;49.47;100695.81;5092108;28;20506;-68
2023/04/07 04:59:28;;;;;;;0.20;0.20;;;;;;;3.36;49.32;100707.28;5092732;28;20039;-68
2023/04/07 05:02:01;;;;;;;0.40;0.22;;;;;;;3.43;49.12;100699.16;5099762;28;20053;-68
2023/04/07 05:04:27;;;;;;;0.10;0.10;;;;;;;3.51;48.85;100700.84;5066905;28;20070;-68
2023/04/07 05:07:02;;;;;;;0.20;0.20;;;;;;;3.62;48.82;100694.00;5100432;28;20259;-68
2023/04/07 05:09:30;;;;;;;0.65;0.20;;;;;;;3.75;48.54;100704.00;5079128;27;20043;-69
2023/04/07 05:11:56;;;;;;;0.20;0.20;;;;;;;3.84;48.16;100705.47;5104011;27;20077;-68
2023/04/07 05:14:24;;;;;;;0.10;0.10;;;;;;;3.87;48.10;100701.50;5096520;28;20043;-68
2023/04/07 05:17:00;;;;;;;0.20;0.20;;;;;;;3.93;47.85;100715.03;5079161;28;20460;-68
2023/04/07 05:19:28;;;;;;;0.30;0.20;;;;;;;3.91;47.86;100706.28;5098429;27;20525;-69
2023/04/07 05:22:00;;;;;;;0.20;0.20;;;;;;;3.99;47.89;100709.84;5082157;27;20066;-68
2023/04/07 05:24:28;;;;;;;0.43;0.20;;;;;;;4.11;47.86;100711.69;5089471;28;20051;-68
2023/04/07 05:26:58;;;;;;;0.55;0.20;;;;;;;4.24;47.37;100710.84;5100869;28;20075;-68
2023/04/07 05:29:25;;;;;;;0.20;0.20;;;;;;;4.29;47.37;100712.06;5094281;27;20521;-70
2023/04/07 05:31:52;;;;;;;0.28;0.28;;;;;;;4.31;47.17;100712.72;5090517;28;20713;-68
2023/04/07 05:34:19;;;;;;;;;;;;;;;4.39;46.90;100717.91;5101214;28;20506;-68
2023/04/07 05:36:50;;;;;;;0.10;0.10;;;;;;;4.44;46.70;100707.25;5099079;28;20023;-68
2023/04/07 05:39:18;;;;;;;0.20;0.20;;;;;;;4.52;46.69;100714.31;5096778;28;20047;-68
2023/04/07 05:41:44;;;;;;;0.15;0.15;;;;;;;4.58;46.67;100715.34;5098585;28;20055;-69
2023/04/07 05:44:12;;;;;;;0.20;0.20;;;;;;;4.63;46.46;100716.38;5085846;28;20073;-68
2023/04/07 05:46:40;;;;;;;0.20;0.20;;;;;;;4.72;46.30;100713.47;5080692;28;20052;-69
2023/04/07 05:49:08;;;;;;;0.20;0.20;;;;;;;4.91;45.98;100717.97;5090734;28;20239;-68
2023/04/07 05:51:34;;;;;;;0.10;0.10;;;;;;;5.16;45.35;100702.84;5072940;28;20074;-68
2023/04/07 05:54:07;;;;;;;0.20;0.20;;;;;;;5.51;44.76;100716.81;5092766;28;20453;-68
2023/04/07 05:56:34;;;;;;;0.20;0.20;;;;;;;5.63;44.15;100710.72;5095881;28;20103;-68
2023/04/07 05:59:01;;;;;;;0.35;0.30;;;;;;;5.73;43.99;100712.94;5078341;28;20055;-68
2023/04/07 06:01:28;;;;;;;0.20;0.20;;;;;;;5.88;43.79;100708.00;5073615;28;20229;-68
2023/04/07 06:03:55;;;;;;;0.40;0.30;;;;;;;6.09;43.44;100720.41;5078813;28;20048;-68
2023/04/07 06:06:26;;;;;;;0.30;0.30;;;;;;;6.25;43.22;100710.03;5101867;28;20514;-69
2023/04/07 06:08:52;;;;;;;0.52;0.30;;;;;;;6.46;42.73;100721.50;5092067;28;20074;-68
2023/04/07 06:11:19;;;;;;;0.20;0.20;;;;;;;6.59;42.53;100713.22;5109672;28;21114;-68
2023/04/07 06:13:46;;;;;;;0.45;0.20;;;;;;;6.74;41.82;100725.59;5091471;28;20067;-68
2023/04/07 06:16:13;;;;;;;0.20;0.20;;;;;;;6.81;41.73;100710.88;5130709;27;20067;-68
2023/04/07 06:18:39;;;;;;;0.20;0.20;;;;;;;6.88;41.70;100723.56;5099304;28;20048;-69
2023/04/07 06:21:06;;;;;;;0.20;0.20;;;;;;;7.08;41.29;100728.75;5079422;28;20137;-69
2023/04/07 06:23:32;;;;;;;0.20;0.20;;;;;;;7.20;40.83;100716.03;5092310;28;20072;-68
2023/04/07 06:25:58;;;;;;;0.20;0.20;;;;;;;7.24;40.88;100716.41;5094774;28;20134;-68
2023/04/07 06:28:24;;;;;;;0.20;0.20;;;;;;;7.32;40.63;100726.13;5108823;28;20054;-69
2023/04/07 06:30:52;;;;;;;0.20;0.20;;;;;;;7.44;40.51;100726.19;5080387;28;20047;-68
2023/04/07 06:33:24;;;;;;;0.20;0.20;;;;;;;7.61;40.04;100721.75;5097593;28;20132;-69
2023/04/07 06:35:50;;;;;;;0.30;0.30;;;;;;;7.77;39.85;100727.59;5106746;28;20039;-68
2023/04/07 06:38:17;;;;;;;0.98;0.35;;;;;;;7.99;39.42;100727.03;5100690;28;20073;-69
2023/04/07 06:40:43;;;;;;;0.20;0.20;;;;;;;8.08;39.07;100725.63;5107333;28;20525;-68
2023/04/07 06:43:09;;;;;;;0.20;0.20;;;;;;;8.24;38.90;100729.53;5103164;28;20044;-68
2023/04/07 06:45:54;;;;;;;0.20;0.20;;;;;;;8.52;38.64;100728.00;5098620;28;20296;-68
2023/04/07 06:48:20;;;;;;;;;;;;;;;8.61;37.88;100732.06;5103337;28;20067;-68
2023/04/07 06:50:47;;;;;;;0.30;0.30;;;;;;;8.38;38.03;100725.50;5103086;28;19962;-68
2023/04/07 06:53:14;;;;;;;0.22;0.22;;;;;;;8.43;37.99;100726.69;5101575;28;20044;-68
2023/04/07 06:55:40;;;;;;;0.55;0.38;;;;;;;8.51;37.99;100727.19;5069978;28;20040;-68
2023/04/07 06:58:06;;;;;;;0.30;0.30;;;;;;;8.61;37.69;100732.06;5103050;28;20054;-68
2023/04/07 07:00:32;;;;;;;0.28;0.22;;;;;;;8.76;37.37;100726.09;5084565;28;20058;-68
2023/04/07 07:03:00;;;;;;;0.22;0.22;;;;;;;8.85;37.68;100721.09;5106057;28;20040;-68
2023/04/07 07:05:26;;;;;;;0.30;0.30;;;;;;;9.11;37.24;100727.06;5105404;28;20207;-68
2023/04/07 07:07:52;;;;;;;0.22;0.22;;;;;;;9.44;36.51;100722.78;5090626;27;20055;-68
2023/04/07 07:10:21;;;;;;;0.20;0.20;;;;;;;9.72;36.32;100726.56;5063885;28;20537;-68
2023/04/07 07:12:47;;;;;;;0.20;0.20;;;;;;;9.91;35.83;100726.31;5089257;28;20051;-68
2023/04/07 07:15:14;;;;;;;0.30;0.30;;;;;;;9.76;35.67;100729.63;5077502;28;20047;-68
2023/04/07 07:17:40;;;;;;;0.30;0.30;;;;;;;9.65;36.02;100721.25;5104227;28;20063;-69
2023/04/07 07:20:09;;;;;;;0.30;0.30;;;;;;;9.81;35.64;100726.16;5104004;28;20112;-68
2023/04/07 07:22:35;;;;;;;0.30;0.30;;;;;;;9.97;35.56;100727.25;5107713;28;20046;-68
2023/04/07 07:25:02;;;;;;;0.30;0.30;;;;;;;10.13;35.19;100726.41;5107908;28;20109;-68
2023/04/07 07:27:29;;;;;;;0.45;0.30;;;;;;;10.17;35.24;100724.00;5103319;28;20597;-68
2023/04/07 07:29:55;;;;;;;0.20;0.20;;;;;;;10.20;34.57;100729.78;5084632;28;20050;-69
2023/04/07 07:32:21;;;;;;;0.30;0.30;;;;;;;10.38;34.43;100719.69;5106857;28;20324;-68
2023/04/07 07:34:47;;;;;;;0.20;0.20;;;;;;;10.56;34.14;100720.50;5101838;28;20047;-69
2023/04/07 07:37:15;;;;;;;0.40;0.30;;;;;;;10.64;33.91;100720.06;5106165;28;20134;-68
2023/04/07 07:39:41;;;;;;;0.20;0.20;;;;;;;10.86;33.65;100724.75;4713900;28;10000474;-68
2023/04/07 07:42:08;;;;;;;0.55;0.38;;;;;;;11.10;33.33;100728.03;5097889;28;20050;-68
2023/04/07 07:44:34;;;;;;;0.20;0.20;;;;;;;11.28;32.93;100731.53;5095340;28;20400;-69
2023/04/07 07:47:00;;;;;;;0.28;0.28;;;;;;;11.46;32.64;100722.94;5077120;28;20138;-69
2023/04/07 07:49:27;;;;;;;0.20;0.20;;;;;;;11.58;31.80;100725.53;5100772;27;20103;-69
2023/04/07 07:51:53;;;;;;;0.30;0.30;;;;;;;11.68;31.84;100723.97;5098649;27;20040;-69
2023/04/07 07:54:20;;;;;;;0.20;0.20;;;;;;;12.07;31.06;100726.53;5098418;27;20054;-69
2023/04/07 07:56:46;;;;;;;;;;;;;;;12.23;30.67;100727.47;5088946;27;20051;-69
2023/04/07 07:59:12;;;;;;;0.30;0.30;;;;;;;12.50;30.19;100728.47;5089487;28;19924;-69
2023/04/07 08:01:38;;;;;;;0.20;0.20;;;;;;;12.72;29.87;100720.09;5089852;28;20495;-69
2023/04/07 08:04:04;;;;;;;0.22;0.22;;;;;;;13.13;29.32;100723.00;5087861;28;20058;-69
2023/04/07 08:06:30;;;;;;;0.75;0.30;;;;;;;13.27;29.01;100723.31;5095692;28;20493;-69
2023/04/07 08:08:57;;;;;;;0.30;0.30;;;;;;;13.29;28.94;100720.31;5085792;28;20044;-69
2023/04/07 08:11:26;;;;;;;0.30;0.30;;;;;;;13.63;28.52;100710.78;5083975;28;20047;-69
2023/04/07 08:13:53;;;;;;;0.25;0.25;;;;;;;14.04;27.96;100705.28;5088365;28;20587;-69
2023/04/07 08:16:20;;;;;;;0.20;0.20;;;;;;;14.29;27.52;100709.94;5076989;28;20105;-69
2023/04/07 08:18:47;;;;;;;0.52;0.40;;;;;;;14.51;27.11;100707.97;5090684;28;20138;-69
2023/04/07 08:21:13;;;;;;;0.40;0.40;;;;;;;14.80;27.03;100710.09;5106960;28;20059;-68
2023/04/07 08:23:39;;;;;;;0.30;0.30;;;;;;;15.06;26.50;100707.22;5102038;28;20058;-68
2023/04/07 08:26:06;;;;;;;0.32;0.32;;;;;;;15.39;26.13;100702.91;5102833;28;20047;-69
2023/04/07 08:28:33;;;;;;;0.32;0.30;;;;;;;15.69;25.11;100701.06;5103492;28;20048;-68
2023/04/07 08:30:59;;;;;;;0.30;0.30;;;;;;;16.01;24.93;100698.91;5103367;28;20047;-69
2023/04/07 08:33:25;;;;;;;0.40;0.40;;;;;;;16.12;24.72;100697.69;5103154;28;20093;-70
2023/04/07 08:35:51;;;;;;;0.30;0.30;;;;;;;16.24;24.29;100702.00;5098075;28;20403;-69
2023/04/07 08:38:17;;;;;;;0.40;0.40;;;;;;;16.43;23.71;100705.66;5106351;28;20700;-69
2023/04/07 08:40:44;;;;;;;0.32;0.32;;;;;;;16.88;23.02;100710.13;5083537;28;20047;-70
2023/04/07 08:43:13;;;;;;;0.30;0.30;;;;;;;16.85;22.66;100694.13;5096854;27;20066;-69
2023/04/07 08:45:42;;;;;;;0.43;0.43;;;;;;;16.41;22.73;100696.03;5089931;28;20057;-69
2023/04/07 08:48:15;;;;;;;0.30;0.30;;;;;;;16.38;23.11;100700.19;5089972;28;20051;-69
2023/04/07 08:50:43;;;;;;;0.40;0.40;;;;;;;16.74;22.78;100698.97;5092678;28;20048;-69
2023/04/07 08:53:12;;;;;;;0.43;0.43;;;;;;;16.91;22.64;100695.72;5073864;28;20428;-69
2023/04/07 08:55:39;;;;;;;0.30;0.30;;;;;;;16.92;22.44;100702.88;5106210;27;20654;-69
2023/04/07 08:58:11;;;;;;;0.40;0.40;;;;;;;16.94;22.92;100702.59;5101385;28;20089;-70
2023/04/07 09:00:41;;;;;;;0.40;0.40;;;;;;;17.25;22.12;100707.75;5092146;28;20464;-70
2023/04/07 09:03:08;;;;;;;0.43;0.40;;;;;;;17.53;21.90;100705.94;5076861;28;20039;-70
2023/04/07 09:05:36;;;;;;;0.50;0.50;;;;;;;17.98;21.96;100702.75;5055698;28;20536;-69
2023/04/07 09:08:02;;;;;;;0.50;0.50;;;;;;;18.45;20.70;100688.09;5110492;27;20054;-70
2023/04/07 09:10:29;;;;;;;0.50;0.50;;;;;;;18.56;20.73;100700.59;5088251;28;20047;-69
2023/04/07 09:12:57;;;;;;;0.50;0.50;;;;;;;18.63;20.45;100694.63;5086315;28;20039;-69
2023/04/07 09:15:24;;;;;;;0.57;0.57;;;;;;;18.73;20.37;100701.91;5102602;28;20440;-70
2023/04/07 09:17:51;;;;;;;0.52;0.50;;;;;;;18.77;20.42;100688.28;5096191;28;20043;-69
2023/04/07 09:20:18;;;;;;;0.60;0.60;;;;;;;18.90;20.16;100697.72;5069161;28;20519;-69
2023/04/07 09:22:44;;;;;;;0.60;0.60;;;;;;;19.11;20.17;100690.63;5058561;28;20045;-69
2023/04/07 09:25:13;;;;;;;0.60;0.60;;;;;;;19.40;19.70;100689.44;5056655;28;20076;-69
2023/04/07 09:27:40;;;;;;;0.73;0.70;;;;;;;19.51;19.32;100692.78;5054366;28;20040;-69
2023/04/07 09:30:16;;;;;;;0.60;0.60;;;;;;;19.81;19.08;100689.56;5055104;28;20167;-68
2023/04/07 09:32:42;;;;;;;0.68;0.68;;;;;;;19.52;18.93;100699.16;5024221;28;20432;-69
2023/04/07 09:35:09;;;;;;;0.75;0.75;;;;;;;19.47;19.27;100691.78;5058776;28;20075;-68
2023/04/07 09:37:36;;;;;;;0.70;0.70;;;;;;;19.72;18.38;100694.25;5060214;28;20392;-68
2023/04/07 09:40:03;;;;;;;0.70;0.70;;;;;;;20.13;18.48;100690.44;5054908;28;20064;-68
2023/04/07 09:42:31;;;;;;;0.80;0.80;;;;;;;20.39;18.24;100698.09;5061607;28;20055;-68
2023/04/07 09:44:57;;;;;;;0.80;0.80;;;;;;;20.88;18.32;100692.56;5056447;28;20111;-68
2023/04/07 09:47:27;;;;;;;0.80;0.80;;;;;;;21.47;17.62;100696.06;5037815;28;20072;-70
2023/04/07 09:49:54;;;;;;;0.82;0.82;;;;;;;21.44;17.37;100694.75;5041515;28;20075;-69
2023/04/07 09:52:45;;;;;;;0.90;0.90;;;;;;;21.38;17.12;100696.88;5058508;28;20049;-69
2023/04/07 09:55:12;;;;;;;0.90;0.90;;;;;;;21.25;17.19;100693.09;5061741;28;20497;-69
2023/04/07 09:57:41;;;;;;;0.93;0.93;;;;;;;21.17;17.18;100690.31;5061476;28;20037;-70
2023/04/07 10:00:10;;;;;;;1.00;1.00;;;;;;;21.44;17.26;100691.16;5057989;28;20527;-69
2023/04/07 10:02:40;;;;;;;1.00;1.00;;;;;;;21.84;16.70;100690.97;5056211;28;20045;-68
2023/04/07 10:05:09;;;;;;;0.95;0.95;;;;;;;21.80;16.90;100693.63;5051338;28;20044;-69
2023/04/07 10:07:38;;;;;;;1.00;1.00;;;;;;;21.93;16.53;100693.75;5100013;28;20137;-68
2023/04/07 10:10:07;;;;;;;1.20;1.10;;;;;;;22.00;16.77;100696.84;5032301;28;20509;-69
2023/04/07 10:12:34;;;;;;;1.20;1.10;;;;;;;22.91;16.14;100687.50;5044580;28;20392;-69
2023/04/07 10:15:01;;;;;;;1.08;1.08;;;;;;;23.22;15.94;100685.47;5055764;28;20048;-69
2023/04/07 10:17:27;;;;;;;1.10;1.10;;;;;;;23.74;15.17;100684.25;5059164;28;20055;-69
2023/04/07 10:19:57;;;;;;;1.10;1.10;;;;;;;23.74;15.51;100687.03;5077199;28;20063;-69
2023/04/07 10:22:24;;;;;;;1.00;1.00;;;;;;;23.47;15.14;100691.22;5089987;28;20518;-68
2023/04/07 10:24:57;;;;;;;1.05;1.00;;;;;;;22.49;15.79;100685.44;5089935;28;20051;-69
2023/04/07 10:27:31;;;;;;;0.98;0.98;;;;;;;22.17;16.31;100693.22;5101039;28;20143;-69
2023/04/07 10:29:59;;;;;;;1.10;1.10;;;;;;;22.50;15.81;100687.06;5094759;28;20040;-69
2023/04/07 10:32:25;;;;;;;1.10;1.10;;;;;;;22.51;16.00;100683.13;5076719;28;20044;-68
2023/04/07 10:34:59;;;;;;;1.30;1.20;;;;;;;22.93;15.54;100682.41;5095665;28;20043;-69
2023/04/07 10:37:26;;;;;;;1.10;1.10;;;;;;;23.35;15.30;100673.25;5106222;28;20051;-68
2023/04/07 10:40:26;;;;;;;1.10;1.10;;;;;;;23.76;14.81;100681.13;5107271;28;20082;-68
2023/04/07 10:42:55;;;;;;;1.20;1.10;;;;;;;23.90;14.69;100681.63;5108994;28;20051;-68
2023/04/07 10:45:56;;;;;;;0.90;0.90;;;;;;;23.32;15.04;100681.50;5107484;28;20047;-68
2023/04/07 10:48:22;;;;;;;1.00;1.00;;;;;;;22.36;15.67;100694.78;5105311;28;20467;-69
2023/04/07 10:51:13;;;;;;;1.67;1.10;;;;;;;22.38;15.81;100686.91;5078756;28;20044;-68
2023/04/07 10:54:21;;;;;;;1.10;1.10;;;;;;;22.70;15.16;100686.63;5104446;28;20048;-68
2023/04/07 10:57:11;;;;;;;1.10;1.10;;;;;;;23.18;14.39;100679.78;5106998;28;20040;-68
2023/04/07 10:59:45;;;;;;;1.20;1.20;;;;;;;23.01;14.45;100691.03;5105984;28;20052;-68
2023/04/07 11:02:34;;;;;;;1.10;1.10;;;;;;;22.86;14.70;100692.44;5097614;28;20104;-68
2023/04/07 11:05:01;;;;;;;1.00;1.00;;;;;;;22.62;14.98;100683.56;5093723;28;20062;-68
2023/04/07 11:07:49;;;;;;;1.00;1.00;;;;;;;22.87;15.11;100680.16;5104414;28;20040;-68
2023/04/07 11:10:15;;;;;;;1.10;1.10;;;;;;;23.40;14.83;100679.78;5106025;27;20070;-68
2023/04/07 11:12:42;;;;;;;1.02;1.02;;;;;;;23.29;14.91;100684.97;5107736;27;20051;-69
2023/04/07 11:15:23;;;;;;;1.00;1.00;;;;;;;23.28;15.18;100681.38;5108145;28;20043;-68
2023/04/07 11:18:10;;;;;;;1.02;1.02;;;;;;;23.01;14.81;100675.13;5107914;28;20092;-68
2023/04/07 11:20:41;;;;;;;1.20;1.08;;;;;;;22.70;15.38;100679.09;5100516;28;20055;-70
2023/04/07 11:23:08;;;;;;;1.23;1.10;;;;;;;22.92;15.60;100675.19;5085373;28;20086;-69
2023/04/07 11:25:34;;;;;;;1.00;1.00;;;;;;;22.94;14.88;100677.63;5104991;28;20051;-68
2023/04/07 11:28:02;;;;;;;1.00;1.00;;;;;;;22.62;15.30;100679.94;5071083;28;20120;-68
2023/04/07 11:30:30;;;;;;;0.77;0.77;;;;;;;22.05;15.64;100687.53;5103411;28;20530;-67
2023/04/07 11:32:56;;;;;;;0.90;0.90;;;;;;;21.78;15.70;100675.63;5104340;28;20047;-68
2023/04/07 11:35:22;;;;;;;1.10;1.10;;;;;;;21.78;15.34;100678.41;5102312;28;20046;-68
2023/04/07 11:37:49;;;;;;;1.20;1.10;;;;;;;21.50;15.63;100681.50;5103526;28;20293;-68
2023/04/07 11:40:33;;;;;;;1.10;1.10;;;;;;;21.59;15.84;100684.28;5103222;28;20396;-68